createdAt,value
2018-10-02T00:01:41.352Z,0.40
2018-10-02T00:04:09.988Z,0.50
2018-10-02T00:06:38.642Z,0.77
2018-10-02T00:09:10.352Z,0.30
2018-10-02T00:11:44.531Z,1.00
2018-10-02T00:14:18.504Z,0.30
2018-10-02T00:16:47.424Z,0.60
2018-10-02T00:19:16.089Z,0.40
2018-10-02T00:21:44.743Z,0.40
2018-10-02T00:24:13.467Z,0.60
2018-10-02T00:26:42.203Z,0.50
2018-10-02T00:29:10.867Z,0.30
2018-10-02T00:31:39.578Z,0.30
2018-10-02T00:34:08.645Z,0.40
2018-10-02T00:36:37.264Z,0.40
2018-10-02T00:39:06.768Z,0.40
2018-10-02T00:41:35.722Z,0.30
2018-10-02T00:44:04.444Z,0.50
2018-10-02T00:46:33.065Z,0.50
2018-10-02T00:49:01.751Z,0.87
2018-10-02T00:51:30.403Z,0.40
2018-10-02T00:53:59.195Z,0.30
2018-10-02T00:56:27.869Z,0.23
2018-10-02T00:58:56.515Z,0.37
2018-10-02T01:01:25.166Z,0.47
2018-10-02T01:03:53.800Z,0.50
2018-10-02T01:06:22.513Z,0.40
2018-10-02T01:08:51.159Z,0.30
2018-10-02T01:11:19.822Z,0.40
2018-10-02T01:13:48.496Z,0.30
2018-10-02T01:16:17.416Z,0.30
2018-10-02T01:18:46.044Z,0.30
2018-10-02T01:21:14.715Z,0.33
2018-10-02T01:23:43.366Z,0.40
2018-10-02T01:26:12.033Z,0.30
2018-10-02T01:28:40.768Z,0.40
2018-10-02T01:31:09.412Z,0.20
2018-10-02T01:33:38.075Z,0.27
2018-10-02T01:36:07.732Z,0.60
2018-10-02T01:38:36.372Z,0.30
2018-10-02T01:41:05.082Z,0.40
2018-10-02T01:43:33.748Z,0.40
2018-10-02T01:46:02.594Z,0.23
2018-10-02T01:48:31.240Z,0.60
2018-10-02T01:51:00.176Z,0.50
2018-10-02T01:53:28.814Z,0.30
2018-10-02T01:55:57.488Z,0.37
2018-10-02T01:58:26.133Z,0.43
2018-10-02T02:00:54.779Z,0.40
2018-10-02T02:03:23.432Z,0.30
2018-10-02T02:05:52.108Z,0.50
2018-10-02T02:08:20.773Z,0.30
2018-10-02T02:10:49.412Z,0.40
2018-10-02T02:13:18.097Z,0.50
2018-10-02T02:15:46.748Z,0.30
2018-10-02T02:18:15.383Z,0.73
2018-10-02T02:20:44.113Z,0.33
2018-10-02T02:23:12.788Z,0.43
2018-10-02T02:25:41.479Z,0.57
2018-10-02T02:28:10.141Z,0.50
2018-10-02T02:30:38.848Z,0.43
2018-10-02T02:33:07.485Z,0.40
2018-10-02T02:35:36.115Z,0.40
2018-10-02T02:38:05.057Z,0.30
2018-10-02T02:40:33.724Z,0.40
2018-10-02T02:43:02.372Z,0.40
2018-10-02T02:45:31.012Z,0.40
2018-10-02T02:48:05.154Z,0.40
2018-10-02T02:50:39.192Z,0.40
2018-10-02T02:53:13.808Z,0.33
2018-10-02T02:55:42.470Z,0.30
2018-10-02T02:58:11.107Z,0.50
2018-10-02T03:00:39.854Z,0.30
2018-10-02T03:03:08.488Z,0.50
2018-10-02T03:05:37.171Z,0.40
2018-10-02T03:08:05.810Z,0.40
2018-10-02T03:10:34.445Z,0.40
2018-10-02T03:13:03.092Z,0.50
2018-10-02T03:15:31.806Z,0.30
2018-10-02T03:18:00.469Z,0.50
2018-10-02T03:20:29.415Z,0.50
2018-10-02T03:22:58.066Z,0.43
2018-10-02T03:25:26.711Z,0.43
2018-10-02T03:27:55.367Z,0.40
2018-10-02T03:30:24.046Z,0.30
2018-10-02T03:32:52.672Z,0.50
2018-10-02T03:35:21.320Z,0.60
2018-10-02T03:37:50.019Z,0.50
2018-10-02T03:40:18.664Z,0.60
2018-10-02T03:42:47.332Z,0.40
2018-10-02T03:45:15.995Z,0.50
2018-10-02T03:47:44.881Z,0.43
2018-10-02T03:50:13.572Z,0.30
2018-10-02T03:52:42.225Z,0.40
2018-10-02T03:55:10.875Z,0.60
2018-10-02T03:57:39.534Z,0.57
2018-10-02T04:00:08.340Z,0.50
2018-10-02T04:02:37.009Z,0.47
2018-10-02T04:05:05.772Z,0.47
2018-10-02T04:07:34.404Z,0.60
2018-10-02T04:10:03.046Z,0.50
2018-10-02T04:12:31.692Z,0.70
2018-10-02T04:15:00.327Z,0.70
2018-10-02T04:17:30.129Z,0.67
2018-10-02T04:19:58.816Z,0.40
2018-10-02T04:22:27.535Z,0.43
2018-10-02T04:25:05.407Z,0.47
2018-10-02T04:27:39.269Z,0.30
2018-10-02T04:30:08.156Z,0.40
2018-10-02T04:32:36.769Z,0.70
2018-10-02T04:35:06.324Z,0.67
2018-10-02T04:37:37.603Z,0.50
2018-10-02T04:40:11.860Z,0.47
2018-10-02T04:42:40.543Z,0.70
2018-10-02T04:45:11.259Z,0.43
2018-10-02T04:47:39.997Z,0.40
2018-10-02T04:50:08.640Z,0.50
2018-10-02T04:52:38.767Z,0.43
2018-10-02T04:55:10.842Z,0.40
2018-10-02T04:57:42.560Z,0.50
2018-10-02T05:00:18.162Z,0.50
2018-10-02T05:02:52.561Z,0.50
2018-10-02T05:05:21.325Z,0.40
2018-10-02T05:07:49.989Z,0.60
2018-10-02T05:10:18.633Z,0.30
2018-10-02T05:12:47.280Z,0.30
2018-10-02T05:15:15.926Z,0.50
2018-10-02T05:17:44.581Z,0.40
2018-10-02T05:20:13.260Z,0.47
2018-10-02T05:22:41.919Z,0.60
2018-10-02T05:25:11.454Z,0.67
2018-10-02T05:27:40.142Z,0.50
2018-10-02T05:30:08.833Z,0.40
2018-10-02T05:32:37.592Z,0.60
2018-10-02T05:35:06.321Z,0.30
2018-10-02T05:37:34.939Z,0.80
2018-10-02T05:40:03.866Z,0.40
2018-10-02T05:42:32.573Z,0.50
2018-10-02T05:45:01.253Z,0.67
2018-10-02T05:47:29.944Z,0.60
2018-10-02T05:49:58.680Z,0.40
2018-10-02T05:52:27.321Z,0.70
2018-10-02T05:54:56.056Z,0.60
2018-10-02T05:57:24.813Z,0.30
2018-10-02T05:59:53.524Z,0.60
2018-10-02T06:02:25.002Z,0.43
2018-10-02T06:04:53.698Z,0.50
2018-10-02T06:07:22.356Z,0.90
2018-10-02T06:09:51.024Z,0.43
2018-10-02T06:12:19.760Z,0.53
2018-10-02T06:14:48.411Z,0.50
2018-10-02T06:17:17.265Z,0.50
2018-10-02T06:19:45.951Z,1.30
2018-10-02T06:22:14.628Z,1.07
2018-10-02T06:24:43.332Z,1.23
2018-10-02T06:27:12.332Z,1.50
2018-10-02T06:29:41.002Z,0.90
2018-10-02T06:32:09.668Z,0.67
2018-10-02T06:34:38.344Z,0.83
2018-10-02T06:37:07.066Z,0.80
2018-10-02T06:39:35.712Z,1.37
2018-10-02T06:42:04.423Z,0.90
2018-10-02T06:44:33.236Z,0.50
2018-10-02T06:47:01.932Z,0.53
2018-10-02T06:49:30.576Z,0.40
2018-10-02T06:51:59.364Z,0.40
2018-10-02T06:54:27.942Z,0.63
2018-10-02T06:56:56.649Z,0.50
2018-10-02T06:59:25.361Z,0.40
2018-10-02T07:01:53.997Z,0.60
2018-10-02T07:04:22.647Z,0.50
2018-10-02T07:06:51.365Z,0.40
2018-10-02T07:09:20.868Z,0.70
2018-10-02T07:11:49.512Z,0.50
2018-10-02T07:14:18.162Z,0.50
2018-10-02T07:16:46.892Z,0.40
2018-10-02T07:19:16.489Z,0.40
2018-10-02T07:21:45.160Z,0.43
2018-10-02T07:24:13.804Z,0.33
2018-10-02T07:26:42.728Z,0.30
2018-10-02T07:29:11.438Z,0.30
2018-10-02T07:31:40.058Z,0.30
2018-10-02T07:34:08.725Z,0.40
2018-10-02T07:36:37.409Z,0.40
2018-10-02T07:39:07.806Z,0.57
2018-10-02T07:41:36.524Z,0.20
2018-10-02T07:44:05.233Z,0.30
2018-10-02T07:46:33.889Z,0.30
2018-10-02T07:49:02.566Z,0.40
2018-10-02T07:51:31.213Z,0.50
2018-10-02T07:53:59.910Z,0.30
2018-10-02T07:56:28.598Z,0.43
2018-10-02T07:58:57.266Z,0.37
2018-10-02T08:01:25.932Z,0.60
2018-10-02T08:03:54.613Z,0.40
2018-10-02T08:06:23.280Z,0.40
2018-10-02T08:08:51.960Z,0.20
2018-10-02T08:11:20.611Z,0.40
2018-10-02T08:13:49.262Z,0.60
2018-10-02T08:16:17.934Z,0.30
2018-10-02T08:18:46.583Z,0.30
2018-10-02T08:21:15.237Z,0.47
2018-10-02T08:23:43.909Z,0.40
2018-10-02T08:26:12.581Z,0.33
2018-10-02T08:28:41.246Z,0.20
2018-10-02T08:31:09.933Z,0.20
2018-10-02T08:33:38.576Z,0.53
2018-10-02T08:36:07.540Z,0.50
2018-10-02T08:38:35.959Z,0.40
2018-10-02T08:41:04.662Z,0.43
2018-10-02T08:43:33.452Z,0.40
2018-10-02T08:46:02.179Z,0.30
2018-10-02T08:48:30.813Z,0.50
2018-10-02T08:50:59.481Z,0.20
2018-10-02T08:53:28.177Z,0.40
2018-10-02T08:55:56.852Z,0.30
2018-10-02T08:58:25.596Z,0.30
2018-10-02T09:00:54.447Z,0.43
2018-10-02T09:03:23.197Z,0.57
2018-10-02T09:05:51.864Z,0.40
2018-10-02T09:08:20.493Z,0.40
2018-10-02T09:10:49.140Z,0.63
2018-10-02T09:13:18.204Z,0.40
2018-10-02T09:15:46.939Z,0.40
2018-10-02T09:18:15.583Z,0.50
2018-10-02T09:20:44.279Z,0.30
2018-10-02T09:23:12.941Z,0.30
2018-10-02T09:25:41.616Z,0.37
2018-10-02T09:28:10.338Z,0.20
2018-10-02T09:30:44.335Z,0.53
2018-10-02T09:33:18.308Z,0.50
2018-10-02T09:35:52.292Z,0.40
2018-10-02T09:38:26.285Z,0.40
2018-10-02T09:43:06.024Z,0.40
2018-10-02T09:45:34.689Z,0.50
2018-10-02T09:48:10.520Z,0.20
2018-10-02T09:50:39.244Z,0.27
2018-10-02T09:53:07.864Z,0.43
2018-10-02T09:55:36.545Z,0.30
2018-10-02T09:58:05.249Z,0.40
2018-10-02T10:00:39.507Z,0.40
2018-10-02T10:03:08.161Z,0.40
2018-10-02T10:05:36.804Z,0.40
2018-10-02T10:08:05.578Z,0.30
2018-10-02T10:10:34.245Z,0.50
2018-10-02T10:13:02.907Z,0.27
2018-10-02T10:15:31.565Z,0.37
2018-10-02T10:18:00.249Z,0.40
2018-10-02T10:20:28.932Z,0.40
2018-10-02T10:22:57.604Z,0.30
2018-10-02T10:25:26.274Z,0.40
2018-10-02T10:27:54.948Z,0.63
2018-10-02T10:30:23.581Z,0.60
2018-10-02T10:32:52.369Z,0.53
2018-10-02T10:35:21.064Z,0.40
2018-10-02T10:37:49.740Z,0.40
2018-10-02T10:40:18.432Z,0.60
2018-10-02T10:42:47.075Z,0.40
2018-10-02T10:45:15.728Z,0.50
2018-10-02T10:47:44.418Z,0.40
2018-10-02T10:50:13.069Z,0.40
2018-10-02T10:52:41.738Z,0.37
2018-10-02T10:55:30.948Z,0.47
2018-10-02T10:57:59.685Z,0.50
2018-10-02T11:00:28.505Z,0.70
2018-10-02T11:02:57.204Z,0.50
2018-10-02T11:05:25.956Z,0.33
2018-10-02T11:07:54.635Z,0.47
2018-10-02T11:10:23.313Z,0.40
2018-10-02T11:12:51.972Z,0.43
2018-10-02T11:15:21.416Z,0.30
2018-10-02T11:17:50.097Z,0.40
2018-10-02T11:20:21.509Z,0.30
2018-10-02T11:22:50.205Z,0.53
2018-10-02T11:25:18.950Z,0.40
2018-10-02T11:27:47.576Z,0.30
2018-10-02T11:30:16.245Z,0.40
2018-10-02T11:32:44.887Z,0.33
2018-10-02T11:35:13.659Z,0.30
2018-10-02T11:37:42.376Z,0.23
2018-10-02T11:40:11.020Z,0.30
2018-10-02T11:42:39.712Z,0.30
2018-10-02T11:45:08.439Z,0.40
2018-10-02T11:47:37.090Z,0.27
2018-10-02T11:50:05.798Z,0.30
2018-10-02T11:52:34.470Z,0.40
2018-10-02T11:55:03.164Z,0.50
2018-10-02T11:57:31.847Z,0.50
2018-10-02T12:00:00.522Z,0.40
2018-10-02T12:02:29.252Z,0.37
2018-10-02T12:04:57.881Z,0.30
2018-10-02T12:07:26.521Z,0.33
2018-10-02T12:09:55.147Z,0.50
2018-10-02T12:12:23.789Z,0.40
2018-10-02T12:14:52.566Z,0.20
2018-10-02T12:17:21.173Z,0.30
2018-10-02T12:19:50.056Z,0.97
2018-10-02T12:22:18.537Z,0.30
2018-10-02T12:24:47.228Z,0.23
2018-10-02T12:27:15.893Z,0.20
2018-10-02T12:29:44.523Z,0.30
2018-10-02T12:32:13.149Z,0.20
2018-10-02T12:34:41.840Z,0.50
2018-10-02T12:37:10.488Z,0.43
2018-10-02T12:39:39.104Z,0.40
2018-10-02T12:42:07.833Z,0.50
2018-10-02T12:44:36.484Z,0.30
2018-10-02T12:47:05.145Z,0.60
2018-10-02T12:49:33.788Z,0.37
2018-10-02T12:52:02.440Z,0.53
2018-10-02T12:54:31.083Z,0.73
2018-10-02T12:56:59.724Z,0.30
2018-10-02T12:59:28.422Z,0.60
2018-10-02T13:01:57.066Z,0.40
2018-10-02T13:04:25.802Z,0.40
2018-10-02T13:06:54.480Z,0.50
2018-10-02T13:09:23.153Z,0.30
2018-10-02T13:11:51.845Z,0.30
2018-10-02T13:14:20.504Z,0.40
2018-10-02T13:16:49.157Z,0.43
2018-10-02T13:19:17.896Z,0.40
2018-10-02T13:21:46.525Z,0.37
2018-10-02T13:24:15.205Z,0.50
2018-10-02T13:26:43.881Z,0.37
2018-10-02T13:29:12.537Z,0.30
2018-10-02T13:31:42.060Z,0.50
2018-10-02T13:34:10.864Z,0.20
2018-10-02T13:36:39.661Z,0.50
2018-10-02T13:39:09.056Z,0.33
2018-10-02T13:41:37.883Z,0.30
2018-10-02T13:44:06.861Z,0.30
2018-10-02T13:46:35.696Z,0.40
2018-10-02T13:49:04.408Z,0.50
2018-10-02T13:51:33.057Z,0.30
2018-10-02T13:54:01.725Z,0.33
2018-10-02T13:56:30.397Z,0.50
2018-10-02T13:58:59.052Z,0.40
2018-10-02T14:01:32.986Z,0.50
2018-10-02T14:04:01.916Z,0.57
2018-10-02T14:06:31.268Z,0.70
2018-10-02T14:08:59.896Z,1.00
2018-10-02T14:11:28.624Z,1.10
2018-10-02T14:13:57.281Z,1.20
2018-10-02T14:16:25.935Z,1.30
2018-10-02T14:18:54.585Z,1.70
2018-10-02T14:21:23.248Z,1.17
2018-10-02T14:23:51.908Z,1.47
2018-10-02T14:26:20.652Z,1.50
2018-10-02T14:28:49.304Z,2.33
2018-10-02T14:31:17.940Z,3.00
2018-10-02T14:33:46.566Z,2.70
2018-10-02T14:36:15.244Z,2.70
2018-10-02T14:38:43.928Z,1.67
2018-10-02T14:41:12.595Z,1.10
2018-10-02T14:43:41.277Z,0.80
2018-10-02T14:46:09.992Z,0.67
2018-10-02T14:48:38.821Z,0.83
2018-10-02T14:51:07.473Z,0.60
2018-10-02T14:53:36.119Z,0.47
2018-10-02T14:56:05.923Z,0.40
2018-10-02T14:58:34.550Z,0.43
2018-10-02T15:01:03.244Z,0.40
2018-10-02T15:03:33.009Z,0.30
2018-10-02T15:06:01.664Z,0.40
2018-10-02T15:08:30.324Z,0.50
2018-10-02T15:10:58.962Z,0.37
2018-10-02T15:13:27.640Z,0.50
2018-10-02T15:15:56.297Z,0.40
2018-10-02T15:18:24.933Z,0.60
2018-10-02T15:20:54.665Z,0.43
2018-10-02T15:23:23.314Z,0.30
2018-10-02T15:25:51.955Z,0.50
2018-10-02T15:28:20.596Z,0.60
2018-10-02T15:30:49.233Z,0.50
2018-10-02T15:33:17.840Z,0.40
2018-10-02T15:35:46.501Z,0.50
2018-10-02T15:38:15.169Z,0.27
2018-10-02T15:40:44.549Z,0.30
2018-10-02T15:43:13.190Z,0.43
2018-10-02T15:45:41.861Z,0.60
2018-10-02T15:48:10.525Z,0.60
2018-10-02T15:50:39.198Z,0.40
2018-10-02T15:53:07.927Z,0.50
2018-10-02T15:55:36.581Z,0.40
2018-10-02T15:58:05.294Z,0.40
2018-10-02T16:00:34.018Z,0.50
2018-10-02T16:03:02.784Z,0.70
2018-10-02T16:05:31.526Z,0.30
2018-10-02T16:08:00.204Z,1.60
2018-10-02T16:10:28.857Z,0.30
2018-10-02T16:12:57.521Z,0.40
2018-10-02T16:15:26.188Z,0.40
2018-10-02T16:17:54.927Z,0.20
2018-10-02T16:20:23.545Z,0.43
2018-10-02T16:22:52.217Z,0.40
2018-10-02T16:25:20.881Z,0.53
2018-10-02T16:27:49.942Z,0.50
2018-10-02T16:30:18.531Z,0.30
2018-10-02T16:32:47.170Z,0.40
2018-10-02T16:35:15.835Z,0.53
2018-10-02T16:37:44.572Z,0.60
2018-10-02T16:40:13.252Z,0.17
2018-10-02T16:42:41.876Z,0.30
2018-10-02T16:45:10.497Z,0.40
2018-10-02T16:47:39.128Z,0.40
2018-10-02T16:50:07.804Z,0.40
2018-10-02T16:52:36.524Z,0.30
2018-10-02T16:55:05.584Z,0.40
2018-10-02T16:57:34.332Z,0.40
2018-10-02T17:00:03.201Z,0.40
2018-10-02T17:02:31.841Z,0.40
2018-10-02T17:05:00.469Z,1.20
2018-10-02T17:07:29.116Z,0.30
2018-10-02T17:09:57.783Z,0.50
2018-10-02T17:12:26.461Z,0.40
2018-10-02T17:14:55.110Z,0.40
2018-10-02T17:17:23.781Z,0.30
2018-10-02T17:19:52.456Z,0.37
2018-10-02T17:22:21.119Z,0.40
2018-10-02T17:24:49.731Z,0.40
2018-10-02T17:27:18.373Z,0.40
2018-10-02T17:29:47.018Z,0.30
2018-10-02T17:32:15.719Z,0.40
2018-10-02T17:34:44.363Z,0.30
2018-10-02T17:37:13.177Z,0.30
2018-10-02T17:39:41.854Z,0.60
2018-10-02T17:42:10.493Z,0.70
2018-10-02T17:44:39.137Z,0.20
2018-10-02T17:47:07.976Z,0.73
2018-10-02T17:49:36.641Z,0.87
2018-10-02T17:52:05.276Z,0.30
2018-10-02T17:54:33.999Z,0.57
2018-10-02T17:57:02.657Z,0.40
2018-10-02T17:59:31.332Z,0.30
2018-10-02T18:01:59.997Z,0.37
2018-10-02T18:04:30.677Z,0.30
2018-10-02T18:07:08.132Z,0.40
2018-10-02T18:09:36.853Z,0.30
2018-10-02T18:12:05.525Z,0.30
2018-10-02T18:14:34.620Z,0.20
2018-10-02T18:17:04.477Z,0.20
2018-10-02T18:19:33.145Z,0.30
2018-10-02T18:22:01.873Z,0.37
2018-10-02T18:24:30.594Z,0.33
2018-10-02T18:26:59.265Z,0.40
2018-10-02T18:29:27.964Z,0.40
2018-10-02T18:31:56.645Z,0.47
2018-10-02T18:34:25.373Z,0.50
2018-10-02T18:36:54.024Z,0.50
2018-10-02T18:39:24.793Z,0.50
2018-10-02T18:41:53.578Z,0.30
2018-10-02T18:44:22.341Z,0.60
2018-10-02T18:46:51.060Z,0.60
2018-10-02T18:49:19.809Z,0.40
2018-10-02T18:51:48.504Z,0.40
2018-10-02T18:54:17.193Z,0.60
2018-10-02T18:56:45.945Z,0.40
2018-10-02T18:59:14.634Z,0.40
2018-10-02T19:01:43.302Z,0.40
2018-10-02T19:04:12.020Z,0.40
2018-10-02T19:06:40.685Z,0.50
2018-10-02T19:09:14.732Z,0.40
2018-10-02T19:11:48.722Z,0.50
2018-10-02T19:14:18.300Z,0.37
2018-10-02T19:16:47.057Z,0.33
2018-10-02T19:19:20.988Z,0.40
2018-10-02T19:21:49.657Z,0.60
2018-10-02T19:24:18.504Z,0.30
2018-10-02T19:26:47.165Z,0.40
2018-10-02T19:29:16.397Z,0.50
2018-10-02T19:31:50.500Z,0.40
2018-10-02T19:34:20.121Z,0.40
2018-10-02T19:36:52.192Z,0.30
2018-10-02T19:39:23.156Z,0.50
2018-10-02T19:41:52.218Z,0.43
2018-10-02T19:44:21.488Z,0.20
2018-10-02T19:46:57.918Z,0.40
2018-10-02T19:49:30.051Z,0.33
2018-10-02T19:52:06.083Z,0.60
2018-10-02T19:54:34.785Z,0.30
2018-10-02T19:57:03.543Z,0.50
2018-10-02T19:59:34.200Z,0.63
2018-10-02T20:02:02.860Z,0.40
2018-10-02T20:04:31.497Z,0.50
2018-10-02T20:07:00.160Z,0.47
2018-10-02T20:09:28.871Z,0.50
2018-10-02T20:11:57.543Z,0.60
2018-10-02T20:14:26.188Z,0.40
2018-10-02T20:16:54.852Z,0.50
2018-10-02T20:19:23.500Z,0.40
2018-10-02T20:21:52.299Z,0.23
2018-10-02T20:24:20.982Z,0.40
2018-10-02T20:26:49.642Z,0.30
2018-10-02T20:29:18.305Z,0.40
2018-10-02T20:31:48.892Z,0.30
2018-10-02T20:34:22.497Z,0.30
2018-10-02T20:36:51.270Z,0.30
2018-10-02T20:39:19.976Z,0.30
2018-10-02T20:41:48.620Z,0.40
2018-10-02T20:44:17.311Z,0.30
2018-10-02T20:46:45.964Z,0.40
2018-10-02T20:49:14.692Z,0.40
2018-10-02T20:51:43.312Z,0.57
2018-10-02T20:54:12.011Z,0.80
2018-10-02T20:56:40.795Z,0.77
2018-10-02T20:59:09.459Z,0.30
2018-10-02T21:01:38.159Z,0.40
2018-10-02T21:04:06.921Z,0.60
2018-10-02T21:06:35.600Z,0.40
2018-10-02T21:09:05.516Z,0.40
2018-10-02T21:11:34.183Z,0.60
2018-10-02T21:14:02.817Z,0.60
2018-10-02T21:16:31.480Z,0.50
2018-10-02T21:19:00.178Z,0.40
2018-10-02T21:21:28.828Z,0.40
2018-10-02T21:23:57.481Z,0.50
2018-10-02T21:26:26.153Z,0.50
2018-10-02T21:28:54.886Z,0.50
2018-10-02T21:31:23.540Z,0.40
2018-10-02T21:33:52.222Z,0.40
2018-10-02T21:36:20.885Z,0.60
2018-10-02T21:38:49.577Z,0.50
2018-10-02T21:41:18.239Z,0.50
2018-10-02T21:43:46.910Z,0.60
2018-10-02T21:46:15.603Z,0.63
2018-10-02T21:48:44.246Z,0.50
2018-10-02T21:51:12.920Z,0.47
2018-10-02T21:53:41.552Z,0.60
2018-10-02T21:56:11.174Z,0.57
2018-10-02T21:58:39.833Z,0.80
2018-10-02T22:01:08.525Z,0.60
2018-10-02T22:03:38.776Z,0.47
2018-10-02T22:06:07.717Z,0.40
2018-10-02T22:08:36.596Z,0.60
2018-10-02T22:11:05.392Z,0.50
2018-10-02T22:13:34.107Z,0.63
2018-10-02T22:16:02.748Z,0.60
2018-10-02T22:18:31.422Z,0.50
2018-10-02T22:21:00.093Z,0.53
2018-10-02T22:23:28.761Z,0.43
2018-10-02T22:25:57.537Z,0.40
2018-10-02T22:28:26.248Z,0.50
2018-10-02T22:30:54.916Z,0.40
2018-10-02T22:33:23.652Z,0.40
2018-10-02T22:35:52.341Z,0.60
2018-10-02T22:38:21.397Z,0.60
2018-10-02T22:40:50.061Z,0.43
2018-10-02T22:43:18.738Z,0.40
2018-10-02T22:45:47.397Z,0.43
2018-10-02T22:48:16.060Z,0.50
2018-10-02T22:50:44.736Z,0.50
2018-10-02T22:53:13.255Z,0.40
2018-10-02T22:55:41.803Z,0.60
2018-10-02T22:58:10.314Z,0.50
2018-10-02T23:00:38.847Z,0.40
2018-10-02T23:03:07.368Z,0.33
2018-10-02T23:05:35.851Z,0.50
2018-10-02T23:08:04.403Z,0.40
2018-10-02T23:10:32.890Z,0.60
2018-10-02T23:13:01.392Z,0.40
2018-10-02T23:15:29.869Z,0.40
2018-10-02T23:17:58.523Z,0.30
2018-10-02T23:20:27.168Z,0.43
2018-10-02T23:22:55.881Z,0.43
2018-10-02T23:25:24.568Z,0.60
2018-10-02T23:27:53.216Z,0.43
2018-10-02T23:30:21.860Z,0.60
2018-10-02T23:32:50.725Z,0.40
2018-10-02T23:35:19.393Z,0.50
2018-10-02T23:37:48.162Z,0.40
2018-10-02T23:40:16.841Z,0.50
2018-10-02T23:42:45.477Z,0.43
2018-10-02T23:45:14.256Z,0.57
2018-10-02T23:47:42.916Z,0.40
2018-10-02T23:50:11.559Z,0.93
2018-10-02T23:52:40.236Z,0.60
2018-10-02T23:55:08.883Z,0.30
2018-10-02T23:57:37.549Z,0.40
